createdAt,value
2023-02-12T00:01:41.243Z,10.59
2023-02-12T00:06:48.657Z,10.59
2023-02-12T00:11:55.886Z,10.58
2023-02-12T00:17:03.027Z,10.56
2023-02-12T00:22:10.145Z,10.55
2023-02-12T00:27:17.447Z,10.58
2023-02-12T00:32:24.785Z,10.59
2023-02-12T00:37:32.246Z,10.60
2023-02-12T00:42:39.796Z,10.59
2023-02-12T00:47:47.637Z,10.61
2023-02-12T00:52:55.177Z,10.62
2023-02-12T00:58:02.659Z,10.64
2023-02-12T01:03:10.167Z,10.65
2023-02-12T01:08:17.958Z,10.66
2023-02-12T01:13:26.070Z,10.68
2023-02-12T01:18:33.319Z,10.69
2023-02-12T01:23:40.751Z,10.70
2023-02-12T01:28:51.282Z,10.74
2023-02-12T01:33:59.696Z,10.77
2023-02-12T01:39:08.024Z,10.82
2023-02-12T01:44:17.693Z,10.85
2023-02-12T01:49:28.734Z,10.89
2023-02-12T01:54:36.961Z,10.93
2023-02-12T01:59:45.411Z,10.99
2023-02-12T02:04:54.112Z,10.99
2023-02-12T02:10:02.023Z,11.01
2023-02-12T02:15:10.638Z,11.00
2023-02-12T02:20:32.976Z,11.02
2023-02-12T02:25:56.699Z,11.04
2023-02-12T02:31:07.164Z,11.05
2023-02-12T02:36:22.222Z,11.06
2023-02-12T02:41:34.884Z,11.05
2023-02-12T02:46:45.454Z,11.05
2023-02-12T02:51:56.147Z,11.06
2023-02-12T02:57:06.700Z,11.06
2023-02-12T03:02:17.345Z,11.09
2023-02-12T03:07:27.796Z,11.14
2023-02-12T03:12:37.721Z,11.23
2023-02-12T03:17:47.114Z,11.34
2023-02-12T03:22:57.291Z,11.43
2023-02-12T03:28:06.558Z,11.53
2023-02-12T03:33:18.651Z,11.64
2023-02-12T03:38:31.266Z,11.78
2023-02-12T03:43:42.561Z,11.85
2023-02-12T03:48:53.761Z,11.97
2023-02-12T03:54:01.133Z,12.07
2023-02-12T03:59:08.461Z,12.15
2023-02-12T04:04:15.685Z,12.23
2023-02-12T04:09:24.040Z,12.34
2023-02-12T04:14:38.470Z,12.40
2023-02-12T04:19:53.232Z,12.49
2023-02-12T04:25:09.849Z,12.54
2023-02-12T04:30:23.069Z,12.69
2023-02-12T04:35:34.321Z,12.75
2023-02-12T04:40:43.194Z,12.83
2023-02-12T04:45:50.536Z,12.90
2023-02-12T04:50:57.695Z,12.93
2023-02-12T04:56:05.306Z,12.99
2023-02-12T05:01:13.015Z,13.02
2023-02-12T05:06:20.685Z,13.10
2023-02-12T05:11:28.225Z,13.13
2023-02-12T05:16:35.495Z,13.17
2023-02-12T05:21:43.100Z,13.19
2023-02-12T05:26:51.177Z,13.22
2023-02-12T05:31:58.763Z,13.24
2023-02-12T05:37:06.377Z,13.30
2023-02-12T05:42:13.789Z,13.30
2023-02-12T05:47:21.165Z,13.32
2023-02-12T05:52:28.374Z,13.33
2023-02-12T05:57:35.684Z,13.36
2023-02-12T06:02:43.006Z,13.34
2023-02-12T06:07:50.232Z,13.34
2023-02-12T06:12:57.803Z,13.33
2023-02-12T06:18:05.578Z,13.35
2023-02-12T06:23:13.379Z,13.34
2023-02-12T06:28:20.882Z,13.32
2023-02-12T06:33:28.272Z,13.32
2023-02-12T06:38:36.303Z,13.31
2023-02-12T06:43:44.039Z,13.31
2023-02-12T06:48:51.364Z,13.30
2023-02-12T06:53:58.406Z,13.27
2023-02-12T06:59:05.725Z,13.27
2023-02-12T07:04:13.423Z,13.23
2023-02-12T07:09:20.636Z,13.22
2023-02-12T07:14:28.935Z,13.22
2023-02-12T07:19:36.206Z,13.19
2023-02-12T07:24:43.995Z,13.19
2023-02-12T07:29:51.106Z,13.16
2023-02-12T07:34:58.281Z,13.17
2023-02-12T07:40:05.842Z,13.15
2023-02-12T07:45:13.684Z,13.12
2023-02-12T07:50:21.560Z,13.11
2023-02-12T07:55:29.501Z,13.09
2023-02-12T08:00:36.888Z,13.07
2023-02-12T08:05:44.157Z,13.04
2023-02-12T08:10:51.597Z,13.03
2023-02-12T08:16:03.619Z,13.01
2023-02-12T08:21:11.455Z,13.00
2023-02-12T08:26:19.317Z,12.96
2023-02-12T08:31:27.934Z,12.95
2023-02-12T08:36:38.218Z,12.91
2023-02-12T08:41:45.363Z,12.92
2023-02-12T08:46:53.171Z,12.88
2023-02-12T08:52:02.109Z,12.89
2023-02-12T08:57:09.394Z,12.87
2023-02-12T09:02:16.636Z,12.85
2023-02-12T09:07:24.243Z,12.84
2023-02-12T09:12:31.670Z,12.85
2023-02-12T09:17:39.189Z,12.83
2023-02-12T09:22:46.660Z,12.84
2023-02-12T09:27:54.211Z,12.86
2023-02-12T09:33:01.559Z,12.89
2023-02-12T09:38:09.512Z,12.92
2023-02-12T09:43:20.755Z,12.98
2023-02-12T09:48:36.431Z,13.03
2023-02-12T09:53:46.263Z,13.08
2023-02-12T09:58:54.366Z,13.10
2023-02-12T10:04:02.016Z,13.14
2023-02-12T10:09:27.197Z,13.19
2023-02-12T10:15:00.102Z,13.23
2023-02-12T10:20:27.166Z,13.28
2023-02-12T10:25:38.507Z,13.32
2023-02-12T10:30:50.971Z,13.34
2023-02-12T10:36:02.109Z,13.35
2023-02-12T10:41:09.903Z,13.37
2023-02-12T10:46:19.979Z,13.38
2023-02-12T10:51:40.433Z,13.39
2023-02-12T10:56:47.651Z,13.39
2023-02-12T11:01:54.853Z,13.39
2023-02-12T11:07:03.961Z,13.38
2023-02-12T11:12:21.701Z,13.39
2023-02-12T11:17:33.221Z,13.41
2023-02-12T11:22:51.309Z,13.41
2023-02-12T11:28:15.733Z,13.39
2023-02-12T11:33:27.293Z,13.36
2023-02-12T11:38:36.695Z,13.35
2023-02-12T11:43:44.033Z,13.35
2023-02-12T11:48:51.604Z,13.34
2023-02-12T11:53:59.947Z,13.34
2023-02-12T11:59:14.473Z,13.36
2023-02-12T12:04:25.079Z,13.37
2023-02-12T12:09:35.271Z,13.38
2023-02-12T12:14:58.332Z,13.39
2023-02-12T12:20:07.672Z,13.43
2023-02-12T12:25:19.548Z,13.45
2023-02-12T12:30:34.595Z,13.48
2023-02-12T12:35:45.894Z,13.48
2023-02-12T12:40:56.996Z,13.51
2023-02-12T12:46:10.517Z,13.54
2023-02-12T12:51:26.324Z,13.55
2023-02-12T12:56:42.067Z,13.59
2023-02-12T13:02:05.545Z,13.62
2023-02-12T13:07:20.607Z,13.66
2023-02-12T13:12:35.935Z,13.66
2023-02-12T13:17:47.385Z,13.70
2023-02-12T13:22:59.550Z,13.71
2023-02-12T13:28:07.982Z,13.72
2023-02-12T13:33:20.019Z,13.72
2023-02-12T13:38:28.225Z,13.73
2023-02-12T13:43:41.307Z,13.73
2023-02-12T13:48:54.577Z,13.74
2023-02-12T13:54:08.925Z,13.75
2023-02-12T13:59:33.259Z,13.75
2023-02-12T14:04:44.078Z,13.75
2023-02-12T14:10:03.810Z,13.76
2023-02-12T14:15:13.064Z,13.78
2023-02-12T14:20:30.387Z,13.76
2023-02-12T14:25:40.986Z,13.78
2023-02-12T14:30:49.091Z,13.77
2023-02-12T14:36:13.692Z,13.77
2023-02-12T14:41:45.391Z,13.76
2023-02-12T14:46:53.476Z,13.78
2023-02-12T14:52:05.342Z,13.78
2023-02-12T14:57:22.051Z,13.78
2023-02-12T15:02:30.123Z,13.78
2023-02-12T15:07:39.972Z,13.77
2023-02-12T15:12:49.303Z,13.77
2023-02-12T15:18:00.471Z,13.76
2023-02-12T15:23:20.701Z,13.77
2023-02-12T15:28:34.049Z,13.76
2023-02-12T15:33:42.582Z,13.76
2023-02-12T15:38:52.793Z,13.75
2023-02-12T15:44:00.451Z,13.75
2023-02-12T15:49:22.737Z,13.74
2023-02-12T15:54:30.381Z,13.75
2023-02-12T15:59:37.882Z,13.72
2023-02-12T16:04:46.101Z,13.71
2023-02-12T16:09:54.306Z,13.71
2023-02-12T16:15:02.233Z,13.71
2023-02-12T16:20:22.932Z,13.70
2023-02-12T16:25:31.242Z,13.69
2023-02-12T16:30:39.464Z,13.69
2023-02-12T16:35:46.786Z,13.70
2023-02-12T16:41:16.247Z,13.70
2023-02-12T16:46:23.752Z,13.70
2023-02-12T16:51:32.034Z,13.71
2023-02-12T16:56:39.772Z,13.68
2023-02-12T17:01:58.740Z,13.69
2023-02-12T17:07:06.244Z,13.68
2023-02-12T17:12:13.667Z,13.66
2023-02-12T17:17:21.120Z,13.65
2023-02-12T17:22:29.273Z,13.64
2023-02-12T17:27:38.176Z,13.65
2023-02-12T17:32:45.768Z,13.64
2023-02-12T17:37:52.861Z,13.63
2023-02-12T17:43:00.377Z,13.60
2023-02-12T17:48:08.237Z,13.61
2023-02-12T17:53:15.511Z,13.61
2023-02-12T17:58:22.811Z,13.61
2023-02-12T18:03:30.176Z,13.58
2023-02-12T18:08:37.299Z,13.58
2023-02-12T18:13:44.635Z,13.56
2023-02-12T18:18:52.285Z,13.56
2023-02-12T18:23:59.785Z,13.56
2023-02-12T18:29:07.306Z,13.54
2023-02-12T18:34:14.674Z,13.52
2023-02-12T18:39:22.106Z,13.52
2023-02-12T18:44:29.422Z,13.52
2023-02-12T18:49:36.735Z,13.48
2023-02-12T18:54:44.877Z,13.48
2023-02-12T18:59:51.966Z,13.46
2023-02-12T19:04:59.675Z,13.46
2023-02-12T19:10:07.803Z,13.44
2023-02-12T19:15:15.211Z,13.44
2023-02-12T19:20:22.854Z,13.43
2023-02-12T19:25:30.200Z,13.43
2023-02-12T19:30:37.763Z,13.41
2023-02-12T19:35:46.249Z,13.40
2023-02-12T19:40:53.998Z,13.39
2023-02-12T19:46:05.138Z,13.38
2023-02-12T19:51:14.517Z,13.39
2023-02-12T19:56:22.176Z,13.36
2023-02-12T20:01:30.168Z,13.35
2023-02-12T20:06:38.907Z,13.33
2023-02-12T20:11:46.433Z,13.33
2023-02-12T20:16:55.717Z,13.32
2023-02-12T20:22:03.759Z,13.31
2023-02-12T20:27:12.494Z,13.31
2023-02-12T20:32:19.590Z,13.31
2023-02-12T20:37:26.747Z,13.30
2023-02-12T20:42:34.118Z,13.28
2023-02-12T20:47:41.296Z,13.26
2023-02-12T20:52:48.725Z,13.24
2023-02-12T20:57:55.934Z,13.26
2023-02-12T21:03:04.366Z,13.24
2023-02-12T21:08:11.742Z,13.24
2023-02-12T21:13:19.235Z,13.21
2023-02-12T21:18:28.624Z,13.21
2023-02-12T21:23:36.288Z,13.20
2023-02-12T21:28:44.077Z,13.18
2023-02-12T21:33:52.248Z,13.18
2023-02-12T21:38:59.971Z,13.18
2023-02-12T21:44:08.524Z,13.16
2023-02-12T21:49:17.890Z,13.16
2023-02-12T21:54:25.348Z,13.15
2023-02-12T21:59:32.733Z,13.13
2023-02-12T22:04:39.831Z,13.13
2023-02-12T22:09:47.128Z,13.12
2023-02-12T22:14:54.589Z,13.10
2023-02-12T22:20:01.744Z,13.10
2023-02-12T22:25:09.230Z,13.08
2023-02-12T22:30:17.157Z,13.08
2023-02-12T22:35:24.875Z,13.06
2023-02-12T22:40:32.543Z,13.05
2023-02-12T22:45:39.741Z,13.03
2023-02-12T22:50:47.527Z,13.03
2023-02-12T22:55:55.089Z,13.02
2023-02-12T23:01:06.008Z,13.00
2023-02-12T23:06:15.555Z,13.00
2023-02-12T23:11:24.772Z,12.98
2023-02-12T23:16:31.993Z,12.96
2023-02-12T23:21:39.394Z,12.95
2023-02-12T23:26:46.618Z,12.94
2023-02-12T23:31:53.988Z,12.93
2023-02-12T23:37:01.839Z,12.92
2023-02-12T23:42:09.309Z,12.89
2023-02-12T23:47:16.529Z,12.88
2023-02-12T23:52:23.752Z,12.87
2023-02-12T23:57:30.940Z,12.86
